createdAt,value
2023-05-05T00:00:06.834Z,96460.88
2023-05-05T00:02:53.398Z,96475.22
2023-05-05T00:05:39.198Z,96473.50
2023-05-05T00:08:24.348Z,96479.47
2023-05-05T00:11:09.868Z,96476.72
2023-05-05T00:13:54.875Z,96471.59
2023-05-05T00:16:40.019Z,96474.06
2023-05-05T00:19:25.096Z,96472.34
2023-05-05T00:22:11.192Z,96471.28
2023-05-05T00:24:56.343Z,96471.38
2023-05-05T00:27:41.592Z,96461.69
2023-05-05T00:30:27.633Z,96468.00
2023-05-05T00:33:13.139Z,96472.34
2023-05-05T00:35:58.450Z,96476.06
2023-05-05T00:38:43.457Z,96477.66
2023-05-05T00:41:28.576Z,96470.66
2023-05-05T00:44:14.793Z,96477.78
2023-05-05T00:47:00.150Z,96472.34
2023-05-05T00:49:45.641Z,96467.75
2023-05-05T00:52:31.303Z,96463.41
2023-05-05T00:55:17.111Z,96458.81
2023-05-05T00:58:04.049Z,96449.34
2023-05-05T01:00:50.497Z,96451.16
2023-05-05T01:03:38.262Z,96443.56
2023-05-05T01:06:29.941Z,96443.38
2023-05-05T01:09:15.259Z,96436.34
2023-05-05T01:12:03.562Z,96435.50
2023-05-05T01:15:27.142Z,96438.88
2023-05-05T01:18:34.502Z,96437.09
2023-05-05T01:21:27.417Z,96437.22
2023-05-05T01:24:38.727Z,96438.16
2023-05-05T01:27:55.876Z,96436.47
2023-05-05T01:31:14.878Z,96433.81
2023-05-05T01:34:04.406Z,96433.91
2023-05-05T01:36:55.736Z,96434.75
2023-05-05T01:39:42.963Z,96433.06
2023-05-05T01:42:29.405Z,96442.00
2023-05-05T01:45:14.690Z,96435.81
2023-05-05T01:48:01.114Z,96437.50
2023-05-05T01:50:47.866Z,96430.59
2023-05-05T01:53:34.241Z,96431.56
2023-05-05T01:56:20.464Z,96430.50
2023-05-05T01:59:06.958Z,96429.13
2023-05-05T02:01:52.173Z,96419.53
2023-05-05T02:04:42.107Z,96435.94
2023-05-05T02:07:27.976Z,96428.78
2023-05-05T02:10:13.716Z,96414.31
2023-05-05T02:13:01.921Z,96426.13
2023-05-05T02:15:47.026Z,96421.22
2023-05-05T02:18:35.730Z,96427.09
2023-05-05T02:21:21.368Z,96427.19
2023-05-05T02:24:07.924Z,96434.25
2023-05-05T02:26:54.587Z,96434.34
2023-05-05T02:29:47.454Z,96423.16
2023-05-05T02:32:39.552Z,96437.00
2023-05-05T02:35:35.618Z,96435.09
2023-05-05T02:38:24.079Z,96429.75
2023-05-05T02:41:12.153Z,96437.22
2023-05-05T02:43:58.862Z,96437.00
2023-05-05T02:46:47.011Z,96440.63
2023-05-05T02:49:32.715Z,96438.94
2023-05-05T02:52:18.772Z,96434.44
2023-05-05T02:55:05.130Z,96441.59
2023-05-05T02:58:00.891Z,96437.22
2023-05-05T03:00:58.468Z,96427.41
2023-05-05T03:03:54.093Z,96417.31
2023-05-05T03:06:42.555Z,96428.47
2023-05-05T03:10:16.777Z,96435.53
2023-05-05T03:13:07.440Z,96427.53
2023-05-05T03:15:58.546Z,96435.53
2023-05-05T03:18:45.663Z,96432.97
2023-05-05T03:21:32.447Z,96433.81
2023-05-05T03:24:20.891Z,96430.31
2023-05-05T03:27:14.615Z,96432.13
2023-05-05T03:30:00.447Z,96421.47
2023-05-05T03:32:45.894Z,96424.13
2023-05-05T03:35:32.351Z,96422.31
2023-05-05T03:38:17.759Z,96413.47
2023-05-05T03:41:04.236Z,96420.59
2023-05-05T03:43:51.220Z,96407.50
2023-05-05T03:46:36.601Z,96426.06
2023-05-05T03:49:23.312Z,96420.72
2023-05-05T03:52:08.894Z,96420.81
2023-05-05T03:54:54.226Z,96419.97
2023-05-05T03:57:39.789Z,96417.19
2023-05-05T04:00:24.899Z,96410.38
2023-05-05T04:03:10.916Z,96421.66
2023-05-05T04:05:56.501Z,96428.56
2023-05-05T04:08:42.359Z,96431.03
2023-05-05T04:11:27.511Z,96421.47
2023-05-05T04:14:13.602Z,96420.59
2023-05-05T04:16:59.143Z,96423.38
2023-05-05T04:19:44.330Z,96425.31
2023-05-05T04:22:29.511Z,96421.78
2023-05-05T04:25:14.903Z,96422.50
2023-05-05T04:28:00.468Z,96424.44
2023-05-05T04:30:47.021Z,96422.84
2023-05-05T04:33:32.324Z,96428.19
2023-05-05T04:36:19.032Z,96423.78
2023-05-05T04:39:07.007Z,96435.19
2023-05-05T04:41:52.988Z,96438.72
2023-05-05T04:44:38.063Z,96432.75
2023-05-05T04:47:23.261Z,96430.94
2023-05-05T04:50:09.775Z,96432.75
2023-05-05T04:52:56.260Z,96442.56
2023-05-05T04:55:42.106Z,96432.00
2023-05-05T04:58:27.831Z,96435.94
2023-05-05T05:01:13.530Z,96426.78
2023-05-05T05:03:58.719Z,96420.59
2023-05-05T05:06:44.400Z,96420.38
2023-05-05T05:09:29.797Z,96420.78
2023-05-05T05:12:14.794Z,96422.16
2023-05-05T05:15:00.060Z,96417.13
2023-05-05T05:17:45.204Z,96417.47
2023-05-05T05:20:31.484Z,96429.38
2023-05-05T05:23:17.063Z,96416.50
2023-05-05T05:26:05.071Z,96424.56
2023-05-05T05:28:50.900Z,96420.41
2023-05-05T05:31:36.747Z,96416.16
2023-05-05T05:34:22.485Z,96418.06
2023-05-05T05:37:08.114Z,96413.78
2023-05-05T05:39:54.430Z,96416.44
2023-05-05T05:42:41.887Z,96425.19
2023-05-05T05:45:27.994Z,96419.97
2023-05-05T05:48:13.165Z,96418.16
2023-05-05T05:50:58.560Z,96424.31
2023-05-05T05:53:44.619Z,96428.06
2023-05-05T05:56:30.051Z,96430.72
2023-05-05T05:59:15.856Z,96420.41
2023-05-05T06:02:01.604Z,96423.44
2023-05-05T06:04:47.337Z,96427.91
2023-05-05T06:07:33.473Z,96421.94
2023-05-05T06:10:26.399Z,96427.25
2023-05-05T06:13:17.532Z,96431.78
2023-05-05T06:16:07.186Z,96439.75
2023-05-05T06:18:52.580Z,96428.28
2023-05-05T06:21:37.817Z,96428.28
2023-05-05T06:24:22.955Z,96438.06
2023-05-05T06:27:08.548Z,96433.53
2023-05-05T06:29:53.697Z,96436.09
2023-05-05T06:32:38.685Z,96432.69
2023-05-05T06:35:24.670Z,96442.03
2023-05-05T06:38:09.899Z,96429.72
2023-05-05T06:40:54.744Z,96434.81
2023-05-05T06:43:39.761Z,96440.91
2023-05-05T06:46:29.915Z,96442.69
2023-05-05T06:49:15.081Z,96432.06
2023-05-05T06:51:59.938Z,96440.69
2023-05-05T06:54:45.501Z,96440.69
2023-05-05T06:57:30.726Z,96444.94
2023-05-05T07:00:17.326Z,96444.84
2023-05-05T07:03:02.756Z,96438.78
2023-05-05T07:05:47.948Z,96436.97
2023-05-05T07:08:33.078Z,96444.09
2023-05-05T07:11:18.968Z,96444.84
2023-05-05T07:14:04.138Z,96441.25
2023-05-05T07:16:49.330Z,96443.03
2023-05-05T07:19:34.489Z,96446.47
2023-05-05T07:22:19.490Z,96447.41
2023-05-05T07:25:05.134Z,96442.94
2023-05-05T07:27:50.422Z,96439.44
2023-05-05T07:30:35.607Z,96438.59
2023-05-05T07:33:20.916Z,96434.97
2023-05-05T07:36:06.426Z,96440.28
2023-05-05T07:38:51.618Z,96435.06
2023-05-05T07:41:36.858Z,96436.69
2023-05-05T07:44:22.084Z,96448.16
2023-05-05T07:47:07.267Z,96437.84
2023-05-05T07:49:52.332Z,96448.06
2023-05-05T07:52:45.080Z,96434.13
2023-05-05T07:55:33.140Z,96442.75
2023-05-05T07:58:18.194Z,96436.25
2023-05-05T08:01:06.352Z,96434.53
2023-05-05T08:03:51.596Z,96432.84
2023-05-05T08:06:36.813Z,96431.47
2023-05-05T08:09:21.642Z,96436.47
2023-05-05T08:12:06.829Z,96431.13
2023-05-05T08:14:53.095Z,96427.53
2023-05-05T08:17:49.253Z,96432.84
2023-05-05T08:20:34.277Z,96433.69
2023-05-05T08:23:19.611Z,96441.69
2023-05-05T08:26:06.256Z,96429.22
2023-05-05T08:28:55.052Z,96430.94
2023-05-05T08:31:40.465Z,96435.28
2023-05-05T08:34:25.599Z,96445.84
2023-05-05T08:37:11.345Z,96443.81
2023-05-05T08:39:57.630Z,96445.53
2023-05-05T08:42:43.070Z,96440.22
2023-05-05T08:45:29.273Z,96439.66
2023-05-05T08:48:17.836Z,96442.88
2023-05-05T08:51:05.511Z,96441.06
2023-05-05T08:53:54.157Z,96445.41
2023-05-05T08:56:43.994Z,96442.75
2023-05-05T08:59:32.942Z,96438.19
2023-05-05T09:02:18.454Z,96447.03
2023-05-05T09:05:05.393Z,96445.22
2023-05-05T09:07:51.188Z,96448.81
2023-05-05T09:10:39.170Z,96448.81
2023-05-05T09:13:24.119Z,96451.19
2023-05-05T09:16:09.881Z,96440.56
2023-05-05T09:19:04.651Z,96451.09
2023-05-05T09:21:49.841Z,96447.47
2023-05-05T09:24:35.108Z,96442.06
2023-05-05T09:27:23.451Z,96442.06
2023-05-05T09:30:10.641Z,96438.22
2023-05-05T09:32:55.930Z,96440.88
2023-05-05T09:35:51.550Z,96441.72
2023-05-05T09:38:36.867Z,96438.88
2023-05-05T09:41:36.327Z,96440.69
2023-05-05T09:44:35.199Z,96445.03
2023-05-05T09:47:29.332Z,96428.34
2023-05-05T09:50:18.170Z,96431.97
2023-05-05T09:53:03.771Z,96435.66
2023-05-05T09:55:52.522Z,96432.81
2023-05-05T09:58:37.750Z,96442.28
2023-05-05T10:01:23.721Z,96444.09
2023-05-05T10:04:22.998Z,96443.13
2023-05-05T10:07:08.485Z,96439.63
2023-05-05T10:09:53.581Z,96436.97
2023-05-05T10:12:39.099Z,96442.19
2023-05-05T10:15:24.253Z,96442.19
2023-05-05T10:18:10.006Z,96434.19
2023-05-05T10:20:58.720Z,96439.53
2023-05-05T10:23:57.973Z,96433.03
2023-05-05T10:26:43.715Z,96422.41
2023-05-05T10:29:31.626Z,96426.75
2023-05-05T10:32:52.953Z,96429.41
2023-05-05T10:35:36.108Z,96427.63
2023-05-05T10:38:24.789Z,96418.75
2023-05-05T10:41:11.735Z,96418.75
2023-05-05T10:43:58.350Z,96411.94
2023-05-05T10:46:44.814Z,96412.50
2023-05-05T10:49:44.780Z,96413.44
2023-05-05T10:53:01.028Z,96412.41
2023-05-05T10:56:16.343Z,96414.09
2023-05-05T10:59:01.993Z,96403.53
2023-05-05T11:01:47.023Z,96409.59
2023-05-05T11:04:32.597Z,96402.50
2023-05-05T11:07:21.507Z,96406.00
2023-05-05T11:10:08.193Z,96403.34
2023-05-05T11:13:00.157Z,96393.53
2023-05-05T11:15:45.668Z,96392.59
2023-05-05T11:18:35.995Z,96384.63
2023-05-05T11:21:21.719Z,96384.63
2023-05-05T11:24:33.444Z,96373.22
2023-05-05T11:27:18.804Z,96376.72
2023-05-05T11:30:03.921Z,96376.72
2023-05-05T11:33:35.901Z,96364.50
2023-05-05T11:36:21.557Z,96372.34
2023-05-05T11:39:19.096Z,96377.38
2023-05-05T11:42:24.949Z,96368.31
2023-05-05T11:45:24.027Z,96370.03
2023-05-05T11:48:25.981Z,96363.84
2023-05-05T11:51:12.496Z,96371.72
2023-05-05T11:53:59.053Z,96364.59
2023-05-05T11:56:51.408Z,96362.78
2023-05-05T11:59:49.771Z,96361.81
2023-05-05T12:02:35.149Z,96363.63
2023-05-05T12:05:21.104Z,96353.94
2023-05-05T12:08:06.456Z,96357.47
2023-05-05T12:10:51.556Z,96348.84
2023-05-05T12:13:36.931Z,96347.66
2023-05-05T12:16:22.316Z,96352.06
2023-05-05T12:19:08.303Z,96351.00
2023-05-05T12:21:54.314Z,96357.16
2023-05-05T12:24:40.892Z,96350.03
2023-05-05T12:27:27.295Z,96342.91
2023-05-05T12:30:18.462Z,96348.09
2023-05-05T12:33:08.050Z,96343.75
2023-05-05T12:35:53.204Z,96341.09
2023-05-05T12:38:38.779Z,96341.94
2023-05-05T12:41:23.918Z,96335.69
2023-05-05T12:44:09.228Z,96334.81
2023-05-05T12:46:57.054Z,96326.72
2023-05-05T12:49:49.696Z,96327.47
2023-05-05T12:52:44.911Z,96326.41
2023-05-05T12:55:39.889Z,96318.44
2023-05-05T12:58:25.118Z,96324.59
2023-05-05T13:01:10.607Z,96321.81
2023-05-05T13:04:07.904Z,96314.59
2023-05-05T13:07:11.556Z,96312.88
2023-05-05T13:10:10.779Z,96304.88
2023-05-05T13:12:56.848Z,96288.28
2023-05-05T13:15:41.898Z,96300.53
2023-05-05T13:18:27.473Z,96300.41
2023-05-05T13:21:12.868Z,96294.75
2023-05-05T13:24:08.100Z,96292.09
2023-05-05T13:27:04.441Z,96287.50
2023-05-05T13:29:49.643Z,96264.84
2023-05-05T13:32:35.742Z,96272.28
2023-05-05T13:35:21.142Z,96266.84
2023-05-05T13:38:06.385Z,96265.03
2023-05-05T13:40:51.696Z,96258.72
2023-05-05T13:43:36.645Z,96253.19
2023-05-05T13:46:22.203Z,96247.88
2023-05-05T13:49:07.296Z,96248.59
2023-05-05T13:51:52.384Z,96252.84
2023-05-05T13:54:37.557Z,96243.16
2023-05-05T13:57:23.572Z,96247.41
2023-05-05T14:00:09.418Z,96246.47
2023-05-05T14:02:54.688Z,96239.31
2023-05-05T14:05:42.576Z,96240.06
2023-05-05T14:08:28.491Z,96236.31
2023-05-05T14:11:14.154Z,96224.91
2023-05-05T14:13:59.361Z,96224.06
2023-05-05T14:16:44.536Z,96218.75
2023-05-05T14:19:30.044Z,96216.09
2023-05-05T14:22:15.442Z,96208.09
2023-05-05T14:25:00.865Z,96218.53
2023-05-05T14:27:46.276Z,96211.59
2023-05-05T14:30:31.488Z,96205.34
2023-05-05T14:33:16.935Z,96195.97
2023-05-05T14:36:02.112Z,96209.91
2023-05-05T14:38:47.313Z,96213.31
2023-05-05T14:41:32.595Z,96202.66
2023-05-05T14:44:17.494Z,96207.75
2023-05-05T14:47:02.587Z,96198.06
2023-05-05T14:49:47.801Z,96195.41
2023-05-05T14:52:32.885Z,96199.91
2023-05-05T14:55:18.223Z,96193.69
2023-05-05T14:58:03.305Z,96198.06
2023-05-05T15:00:48.465Z,96176.59
2023-05-05T15:03:33.837Z,96183.03
2023-05-05T15:06:20.659Z,96185.72
2023-05-05T15:09:06.516Z,96179.44
2023-05-05T15:11:51.356Z,96182.09
2023-05-05T15:14:38.095Z,96189.84
2023-05-05T15:17:23.251Z,96186.34
2023-05-05T15:20:08.754Z,96180.50
2023-05-05T15:22:55.029Z,96182.84
2023-05-05T15:25:40.514Z,96153.09
2023-05-05T15:28:25.785Z,96178.44
2023-05-05T15:31:10.970Z,96167.44
2023-05-05T15:33:56.342Z,96174.84
2023-05-05T15:36:41.565Z,96176.41
2023-05-05T15:39:26.700Z,96169.41
2023-05-05T15:42:11.996Z,96170.25
2023-05-05T15:44:59.065Z,96162.25
2023-05-05T15:47:44.790Z,96164.09
2023-05-05T15:50:29.894Z,96162.25
2023-05-05T15:53:15.018Z,96159.59
2023-05-05T15:56:00.272Z,96167.59
2023-05-05T15:58:45.568Z,96161.41
2023-05-05T16:01:30.516Z,96164.66
2023-05-05T16:04:15.971Z,96162.00
2023-05-05T16:07:03.192Z,96164.81
2023-05-05T16:09:48.505Z,96162.16
2023-05-05T16:12:33.719Z,96163.34
2023-05-05T16:15:18.769Z,96154.75
2023-05-05T16:18:04.122Z,96160.44
2023-05-05T16:20:49.255Z,96158.63
2023-05-05T16:23:35.057Z,96151.59
2023-05-05T16:26:20.086Z,96143.00
2023-05-05T16:29:05.165Z,96155.84
2023-05-05T16:31:50.284Z,96146.38
2023-05-05T16:34:35.533Z,96152.34
2023-05-05T16:37:20.643Z,96150.88
2023-05-05T16:40:06.763Z,96156.94
2023-05-05T16:42:51.753Z,96154.16
2023-05-05T16:45:36.729Z,96155.09
2023-05-05T16:48:21.859Z,96153.28
2023-05-05T16:51:07.329Z,96142.03
2023-05-05T16:53:52.694Z,96148.94
2023-05-05T16:56:37.907Z,96152.44
2023-05-05T16:59:22.982Z,96118.88
2023-05-05T17:02:07.898Z,96145.31
2023-05-05T17:04:53.230Z,96144.47
2023-05-05T17:07:38.557Z,96137.56
2023-05-05T17:10:23.687Z,96138.41
2023-05-05T17:13:12.972Z,96139.13
2023-05-05T17:15:58.393Z,96132.56
2023-05-05T17:18:43.303Z,96148.22
2023-05-05T17:21:29.120Z,96146.50
2023-05-05T17:24:14.322Z,96142.16
2023-05-05T17:26:59.571Z,96133.66
2023-05-05T17:29:44.594Z,96127.38
2023-05-05T17:32:29.808Z,96129.06
2023-05-05T17:35:15.057Z,96129.91
2023-05-05T17:38:00.099Z,96129.69
2023-05-05T17:40:45.410Z,96130.53
2023-05-05T17:43:30.244Z,96128.00
2023-05-05T17:46:15.176Z,96124.47
2023-05-05T17:49:00.639Z,96096.47
2023-05-05T17:51:45.761Z,96104.16
2023-05-05T17:54:30.965Z,96089.38
2023-05-05T17:57:18.131Z,96084.78
2023-05-05T18:00:05.358Z,96082.13
2023-05-05T18:02:57.583Z,96062.00
2023-05-05T18:05:42.624Z,96068.06
2023-05-05T18:08:27.563Z,96069.84
2023-05-05T18:11:12.969Z,96077.84
2023-05-05T18:13:57.889Z,96067.09
2023-05-05T18:16:48.649Z,96064.53
2023-05-05T18:19:33.754Z,96062.84
2023-05-05T18:22:18.626Z,96072.66
2023-05-05T18:25:07.202Z,96088.63
2023-05-05T18:27:53.242Z,96114.38
2023-05-05T18:30:39.404Z,96121.91
2023-05-05T18:33:24.758Z,96132.19
2023-05-05T18:36:09.887Z,96137.50
2023-05-05T18:38:55.033Z,96135.84
2023-05-05T18:41:40.915Z,96147.31
2023-05-05T18:44:26.472Z,96166.81
2023-05-05T18:47:11.639Z,96179.28
2023-05-05T18:49:56.935Z,96182.66
2023-05-05T18:52:41.900Z,96210.25
2023-05-05T18:55:26.951Z,96319.41
2023-05-05T18:58:12.033Z,96326.56
2023-05-05T19:00:57.816Z,96328.38
2023-05-05T19:03:47.709Z,96328.38
2023-05-05T19:06:32.902Z,96342.88
2023-05-05T19:09:18.138Z,96339.56
2023-05-05T19:12:03.794Z,96349.13
2023-05-05T19:14:49.377Z,96363.44
2023-05-05T19:17:34.307Z,96354.06
2023-05-05T19:20:19.852Z,96359.06
2023-05-05T19:23:05.182Z,96366.84
2023-05-05T19:25:53.538Z,96363.28
2023-05-05T19:28:38.991Z,96370.53
2023-05-05T19:31:27.637Z,96375.88
2023-05-05T19:34:13.099Z,96374.19
2023-05-05T19:36:58.274Z,96368.03
2023-05-05T19:39:45.659Z,96377.78
2023-05-05T19:42:30.960Z,96370.78
2023-05-05T19:45:16.352Z,96332.25
2023-05-05T19:48:01.912Z,96337.13
2023-05-05T19:50:47.530Z,96335.44
2023-05-05T19:53:32.975Z,96326.59
2023-05-05T19:56:18.249Z,96317.75
2023-05-05T19:59:05.997Z,96329.25
2023-05-05T20:01:51.529Z,96336.16
2023-05-05T20:04:37.228Z,96330.94
2023-05-05T20:07:22.697Z,96341.69
2023-05-05T20:10:08.830Z,96368.31
2023-05-05T20:12:54.678Z,96381.13
2023-05-05T20:15:39.822Z,96392.50
2023-05-05T20:18:25.364Z,96386.13
2023-05-05T20:21:10.810Z,96391.63
2023-05-05T20:23:56.304Z,96395.81
2023-05-05T20:26:42.796Z,96387.94
2023-05-05T20:29:28.082Z,96386.22
2023-05-05T20:32:13.895Z,96392.50
2023-05-05T20:34:59.277Z,96399.63
2023-05-05T20:37:45.653Z,96409.44
2023-05-05T20:40:33.198Z,96412.84
2023-05-05T20:43:19.044Z,96414.75
2023-05-05T20:46:04.439Z,96409.44
2023-05-05T20:48:49.644Z,96404.53
2023-05-05T20:51:35.082Z,96412.31
2023-05-05T20:54:20.144Z,96411.44
2023-05-05T20:57:07.115Z,96419.44
2023-05-05T20:59:52.186Z,96423.06
2023-05-05T21:02:37.441Z,96415.63
2023-05-05T21:05:23.221Z,96428.50
2023-05-05T21:08:08.241Z,96425.00
2023-05-05T21:10:53.629Z,96425.00
2023-05-05T21:13:38.805Z,96427.66
2023-05-05T21:16:23.781Z,96425.94
2023-05-05T21:19:08.912Z,96425.94
2023-05-05T21:21:54.154Z,96422.53
2023-05-05T21:24:39.437Z,96418.06
2023-05-05T21:27:25.100Z,96425.28
2023-05-05T21:30:11.433Z,96424.34
2023-05-05T21:32:57.100Z,96429.78
2023-05-05T21:35:42.727Z,96419.97
2023-05-05T21:38:27.837Z,96398.97
2023-05-05T21:41:12.887Z,96421.88
2023-05-05T21:43:58.318Z,96418.28
2023-05-05T21:46:43.755Z,96411.97
2023-05-05T21:49:29.098Z,96419.13
2023-05-05T21:52:14.058Z,96414.53
2023-05-05T21:54:59.213Z,96395.56
2023-05-05T21:57:44.594Z,96401.56
2023-05-05T22:00:29.846Z,96398.91
2023-05-05T22:03:15.016Z,96394.53
2023-05-05T22:06:00.013Z,96395.50
2023-05-05T22:08:45.456Z,96396.41
2023-05-05T22:11:31.191Z,96392.28
2023-05-05T22:14:16.509Z,96390.44
2023-05-05T22:17:01.560Z,96400.91
2023-05-05T22:19:46.476Z,96398.34
2023-05-05T22:22:31.793Z,96397.50
2023-05-05T22:25:17.153Z,96396.84
2023-05-05T22:28:02.232Z,96399.31
2023-05-05T22:30:47.732Z,96404.63
2023-05-05T22:33:33.286Z,96398.44
2023-05-05T22:36:18.761Z,96400.34
2023-05-05T22:39:04.217Z,96390.69
2023-05-05T22:41:49.495Z,96394.50
2023-05-05T22:44:34.515Z,96393.44
2023-05-05T22:47:19.737Z,96383.13
2023-05-05T22:50:05.267Z,96393.44
2023-05-05T22:52:50.525Z,96388.97
2023-05-05T22:55:35.805Z,96388.97
2023-05-05T22:58:20.983Z,96376.63
2023-05-05T23:01:07.355Z,96390.88
2023-05-05T23:03:52.357Z,96391.72
2023-05-05T23:06:39.564Z,96395.34
2023-05-05T23:09:24.554Z,96395.16
2023-05-05T23:12:09.740Z,96394.28
2023-05-05T23:14:54.993Z,96383.75
2023-05-05T23:17:40.075Z,96386.53
2023-05-05T23:20:25.463Z,96391.84
2023-05-05T23:23:10.617Z,96383.13
2023-05-05T23:25:55.994Z,96382.25
2023-05-05T23:28:41.978Z,96378.75
2023-05-05T23:31:27.553Z,96375.16
2023-05-05T23:34:14.399Z,96373.53
2023-05-05T23:36:59.705Z,96377.06
2023-05-05T23:39:44.953Z,96370.88
2023-05-05T23:42:30.215Z,96369.19
2023-05-05T23:45:16.400Z,96372.69
2023-05-05T23:48:02.984Z,96357.69
2023-05-05T23:50:48.177Z,96361.31
2023-05-05T23:53:33.359Z,96361.41
2023-05-05T23:56:18.818Z,96362.16
2023-05-05T23:59:05.334Z,96352.69
